Time;durP1;ratioP1;P1;durP2;ratioP2;P2;SDS_P1;SDS_P2;PMS_P1;PMS_P2;Temp;Humidity;BMP_temperature;BMP_pressure;BME280_temperature;BME280_humidity;BME280_pressure;Samples;Min_cycle;Max_cycle;Signal;HPM_P1;HPM_P2
2021/11/22 00:00:18;;;;;;;45.28;24.30;;;;;;;5.25;73.82;98120.16;5089515;28;20032;-70
2021/11/22 00:02:44;;;;;;;43.58;23.58;;;;;;;5.28;73.62;98119.63;5088955;28;20075;-70
2021/11/22 00:05:09;;;;;;;41.67;22.35;;;;;;;5.27;73.59;98113.34;5089052;28;20494;-69
2021/11/22 00:07:35;;;;;;;43.30;22.85;;;;;;;5.29;73.53;98124.78;5088751;28;20032;-70
2021/11/22 00:10:03;;;;;;;47.10;24.25;;;;;;;5.33;74.09;98123.16;5088916;28;20032;-70
2021/11/22 00:12:30;;;;;;;48.42;24.90;;;;;;;5.35;73.58;98120.16;5070696;28;20027;-70
2021/11/22 00:14:55;;;;;;;45.45;24.63;;;;;;;5.34;73.43;98122.06;5070553;28;20032;-70
2021/11/22 00:17:21;;;;;;;45.97;24.48;;;;;;;5.34;73.43;98118.50;5088949;28;20408;-70
2021/11/22 00:19:46;;;;;;;46.00;24.23;;;;;;;5.36;73.46;98141.66;5088810;28;20046;-71
2021/11/22 00:22:12;;;;;;;46.88;23.13;;;;;;;5.41;73.52;98129.16;5070657;28;20024;-70
2021/11/22 00:24:37;;;;;;;56.22;26.95;;;;;;;5.45;73.63;98133.75;5088530;28;20499;-69
2021/11/22 00:27:03;;;;;;;71.47;29.75;;;;;;;5.44;73.45;98132.13;5088837;28;20535;-70
2021/11/22 00:29:28;;;;;;;165.05;49.95;;;;;;;5.42;73.72;98137.00;5088853;28;20019;-71
2021/11/22 00:31:54;;;;;;;105.90;37.08;;;;;;;5.39;73.55;98134.03;5070713;28;20043;-70
2021/11/22 00:34:20;;;;;;;53.70;24.17;;;;;;;5.41;73.35;98129.94;5088327;28;20479;-69
2021/11/22 00:36:45;;;;;;;52.05;23.88;;;;;;;5.39;73.22;98137.56;5088005;28;20028;-70
2021/11/22 00:39:11;;;;;;;47.78;23.30;;;;;;;5.35;73.59;98142.72;5071756;28;20035;-70
2021/11/22 00:41:36;;;;;;;48.30;24.27;;;;;;;5.31;73.81;98144.34;5090165;28;20493;-70
2021/11/22 00:44:02;;;;;;;44.97;23.48;;;;;;;5.31;73.35;98147.06;5071991;28;20017;-70
2021/11/22 00:46:27;;;;;;;51.75;25.00;;;;;;;5.39;73.75;98139.47;5089895;28;20810;-70
2021/11/22 00:48:53;;;;;;;54.65;26.75;;;;;;;5.45;73.51;98146.56;5089988;28;20028;-70
2021/11/22 00:51:19;;;;;;;58.30;27.92;;;;;;;5.52;73.97;98141.66;5089879;28;20031;-70
2021/11/22 00:53:44;;;;;;;68.68;34.38;;;;;;;5.58;73.73;98137.84;5087853;28;20024;-70
2021/11/22 00:56:10;;;;;;;65.55;33.67;;;;;;;5.60;73.41;98148.47;5089524;28;20036;-70
2021/11/22 00:58:35;;;;;;;63.72;30.92;;;;;;;5.57;73.38;98149.00;5087147;28;20028;-70
2021/11/22 01:01:02;;;;;;;61.50;30.33;;;;;;;5.55;73.37;98143.81;5089331;28;20075;-70
2021/11/22 01:03:27;;;;;;;57.20;28.23;;;;;;;5.60;73.54;98137.59;5086833;28;20024;-69
2021/11/22 01:05:53;;;;;;;55.03;27.40;;;;;;;5.63;73.56;98143.28;5088161;28;20035;-68
2021/11/22 01:08:18;;;;;;;50.30;25.35;;;;;;;5.57;73.62;98149.00;5069089;28;20028;-69
2021/11/22 01:10:44;;;;;;;48.63;23.95;;;;;;;5.50;74.10;98143.84;5089153;28;20059;-70
2021/11/22 01:13:11;;;;;;;46.95;22.95;;;;;;;5.51;73.54;98137.28;5089399;28;20031;-70
2021/11/22 01:15:37;;;;;;;47.33;24.02;;;;;;;5.54;73.37;98153.06;5089050;28;20068;-70
2021/11/22 01:18:04;;;;;;;43.75;23.83;;;;;;;5.53;73.93;98156.06;5087664;28;20016;-69
2021/11/22 01:20:31;;;;;;;45.65;23.35;;;;;;;5.56;73.99;98153.63;5087804;28;20053;-70
2021/11/22 01:23:05;;;;;;;43.97;21.92;;;;;;;5.59;73.86;98160.44;5084975;28;20116;-70
2021/11/22 01:25:31;;;;;;;43.20;21.45;;;;;;;5.62;73.50;98162.63;5088510;28;20028;-69
2021/11/22 01:27:57;;;;;;;44.58;22.25;;;;;;;5.68;73.87;98158.81;5089007;28;20039;-70
2021/11/22 01:30:22;;;;;;;42.13;22.33;;;;;;;5.71;73.82;98158.25;5088706;28;20055;-69
2021/11/22 01:32:48;;;;;;;68.40;29.17;;;;;;;5.70;73.62;98156.66;5070746;28;20083;-69
2021/11/22 01:35:15;;;;;;;66.50;27.73;;;;;;;5.72;73.52;98164.53;5088498;28;20150;-69
2021/11/22 01:37:41;;;;;;;55.70;23.92;;;;;;;5.72;73.28;98157.16;5086980;28;20013;-70
2021/11/22 01:40:08;;;;;;;43.63;20.48;;;;;;;5.76;73.87;98160.19;5090000;28;20028;-69
2021/11/22 01:42:37;;;;;;;59.55;25.15;;;;;;;5.78;73.60;98161.53;5090193;28;20359;-70
2021/11/22 01:45:03;;;;;;;41.05;20.75;;;;;;;5.77;73.47;98162.59;5091007;28;20035;-70
2021/11/22 01:47:28;;;;;;;37.55;21.10;;;;;;;5.75;73.79;98164.78;5091544;28;20024;-71
2021/11/22 01:49:54;;;;;;;41.05;22.20;;;;;;;5.74;73.63;98167.78;5090522;28;20024;-70
2021/11/22 01:52:19;;;;;;;38.38;20.67;;;;;;;5.75;73.44;98174.88;5092560;28;20031;-70
2021/11/22 01:54:45;;;;;;;43.05;21.42;;;;;;;5.73;73.50;98175.13;5092128;28;20044;-70
2021/11/22 01:57:10;;;;;;;36.38;19.65;;;;;;;5.74;73.45;98182.19;5093160;28;20095;-69
2021/11/22 01:59:36;;;;;;;39.00;19.85;;;;;;;5.72;73.70;98181.66;5092536;28;20046;-70
2021/11/22 02:02:04;;;;;;;38.92;20.50;;;;;;;5.72;73.72;98184.38;5092560;28;20093;-70
2021/11/22 02:04:29;;;;;;;40.15;20.10;;;;;;;5.70;73.58;98185.75;5091769;28;20012;-70
2021/11/22 02:06:55;;;;;;;41.25;21.10;;;;;;;5.66;73.81;98189.00;5093039;28;20117;-70
2021/11/22 02:09:20;;;;;;;40.45;20.75;;;;;;;5.62;73.61;98198.78;5091169;28;20052;-70
2021/11/22 02:11:46;;;;;;;41.47;21.48;;;;;;;5.64;74.21;98187.66;5092935;28;20024;-70
2021/11/22 02:14:11;;;;;;;39.60;21.13;;;;;;;5.67;73.98;98187.13;5091168;28;20031;-70
2021/11/22 02:16:37;;;;;;;39.03;20.55;;;;;;;5.66;73.79;98191.72;5092062;28;20027;-70
2021/11/22 02:19:06;;;;;;;42.42;21.15;;;;;;;5.66;73.66;98185.47;5090943;28;20655;-70
2021/11/22 02:21:32;;;;;;;43.67;21.13;;;;;;;5.66;74.02;98178.13;5092767;28;20024;-71
2021/11/22 02:23:58;;;;;;;43.20;22.40;;;;;;;5.74;74.16;98182.19;5089290;28;20099;-70
2021/11/22 02:26:23;;;;;;;43.38;21.70;;;;;;;5.79;73.89;98178.69;5090873;28;20046;-71
2021/11/22 02:28:49;;;;;;;41.65;21.42;;;;;;;5.82;74.15;98178.94;5092990;28;20020;-70
2021/11/22 02:31:14;;;;;;;44.58;22.75;;;;;;;5.86;74.09;98178.41;5091897;28;20440;-70
2021/11/22 02:33:40;;;;;;;44.20;21.80;;;;;;;5.84;73.51;98181.41;5092614;28;20028;-71
2021/11/22 02:36:06;;;;;;;47.80;23.38;;;;;;;5.87;74.02;98175.41;5072407;28;20028;-70
2021/11/22 02:38:34;;;;;;;42.85;22.23;;;;;;;5.91;73.83;98178.41;5066020;28;20036;-69
2021/11/22 02:41:01;;;;;;;40.47;20.73;;;;;;;5.86;73.59;98183.84;5090497;28;20035;-70
2021/11/22 02:43:29;;;;;;;47.60;21.65;;;;;;;5.86;73.41;98192.00;5090514;28;20028;-70
2021/11/22 02:45:55;;;;;;;42.55;22.10;;;;;;;5.85;73.49;98184.94;5093234;28;20069;-70
2021/11/22 02:48:20;;;;;;;39.90;21.77;;;;;;;5.89;74.07;98197.75;5092997;28;20445;-70
2021/11/22 02:50:46;;;;;;;38.97;21.40;;;;;;;5.89;73.70;98186.84;5091522;28;20130;-70
2021/11/22 02:53:12;;;;;;;45.53;22.83;;;;;;;5.91;73.58;98198.25;5089084;28;20032;-70
2021/11/22 02:55:38;;;;;;;40.72;21.25;;;;;;;5.94;73.93;98199.63;5091667;28;20051;-70
2021/11/22 02:58:04;;;;;;;42.38;22.60;;;;;;;5.90;73.66;98204.00;5093572;28;20437;-70
2021/11/22 03:00:31;;;;;;;45.92;22.95;;;;;;;5.82;73.52;98205.34;5090220;28;20024;-70
2021/11/22 03:02:57;;;;;;;41.92;21.75;;;;;;;5.76;73.67;98211.88;5086600;28;20388;-70
2021/11/22 03:05:24;;;;;;;39.42;20.35;;;;;;;5.73;73.66;98198.81;5091351;28;20039;-70
2021/11/22 03:07:54;;;;;;;43.78;23.08;;;;;;;5.73;73.78;98202.34;5075053;28;20468;-70
2021/11/22 03:10:20;;;;;;;50.20;24.17;;;;;;;5.69;73.80;98208.59;5091398;28;20170;-69
2021/11/22 03:12:47;;;;;;;43.78;22.83;;;;;;;5.66;73.44;98205.31;5074159;28;20039;-70
2021/11/22 03:15:16;;;;;;;45.42;23.60;;;;;;;5.65;73.55;98206.41;5073083;28;20032;-70
2021/11/22 03:17:42;;;;;;;43.58;22.52;;;;;;;5.72;74.08;98197.97;5089904;28;21084;-69
2021/11/22 03:20:11;;;;;;;43.40;22.83;;;;;;;5.82;73.80;98214.31;5093049;28;20090;-69
2021/11/22 03:22:37;;;;;;;43.78;22.25;;;;;;;5.84;73.54;98213.22;5092269;28;20035;-69
2021/11/22 03:25:05;;;;;;;47.85;24.50;;;;;;;5.81;73.82;98220.06;5091761;28;20028;-68
2021/11/22 03:27:30;;;;;;;45.20;23.38;;;;;;;5.78;73.96;98215.16;5092301;28;20056;-70
2021/11/22 03:29:56;;;;;;;41.63;21.33;;;;;;;5.77;73.74;98200.72;5092307;28;20054;-69
2021/11/22 03:32:22;;;;;;;42.38;22.90;;;;;;;5.72;73.56;98200.69;5074157;28;20078;-67
2021/11/22 03:34:47;;;;;;;214.23;67.30;;;;;;;5.70;73.51;98208.34;5087972;28;20028;-68
2021/11/22 03:37:14;;;;;;;306.25;102.35;;;;;;;5.68;73.59;98210.50;5072500;28;20039;-68
2021/11/22 03:39:44;;;;;;;340.40;111.25;;;;;;;5.73;73.69;98215.13;5088406;28;20040;-67
2021/11/22 03:42:14;;;;;;;77.97;33.55;;;;;;;5.78;74.32;98215.94;5092665;28;20051;-67
2021/11/22 03:44:40;;;;;;;56.50;24.70;;;;;;;5.84;74.12;98222.22;5089065;28;20078;-69
2021/11/22 03:47:05;;;;;;;49.53;23.85;;;;;;;5.82;73.98;98222.50;5089771;28;20027;-69
2021/11/22 03:49:33;;;;;;;47.78;23.38;;;;;;;5.79;74.01;98223.03;5090902;28;20024;-69
2021/11/22 03:51:59;;;;;;;55.25;27.02;;;;;;;5.81;73.88;98220.84;5090890;28;20036;-70
2021/11/22 03:54:24;;;;;;;39.88;19.67;;;;;;;5.84;73.77;98233.13;5089398;28;20375;-69
2021/11/22 03:56:50;;;;;;;46.97;22.52;;;;;;;5.80;73.38;98235.53;5090744;28;20471;-69
2021/11/22 03:59:15;;;;;;;43.08;21.33;;;;;;;5.76;73.75;98237.16;5091416;28;20035;-69
2021/11/22 04:01:40;;;;;;;41.78;21.05;;;;;;;5.72;73.53;98241.50;5090677;28;20028;-70
2021/11/22 04:04:06;;;;;;;40.15;22.00;;;;;;;5.72;73.76;98243.44;5090513;28;20028;-70
2021/11/22 04:06:32;;;;;;;52.75;27.73;;;;;;;5.73;73.58;98242.34;5091245;28;20085;-69
2021/11/22 04:08:58;;;;;;;39.60;22.20;;;;;;;5.73;73.64;98240.44;5091275;28;20028;-70
2021/11/22 04:11:23;;;;;;;48.58;23.15;;;;;;;5.68;73.72;98235.00;5088066;28;20070;-69
2021/11/22 04:13:49;;;;;;;48.90;21.70;;;;;;;5.65;73.97;98230.91;5091840;28;20026;-67
2021/11/22 04:16:15;;;;;;;42.97;21.10;;;;;;;5.63;74.02;98238.50;5088791;28;20112;-68
2021/11/22 04:18:42;;;;;;;45.17;22.67;;;;;;;5.59;73.72;98248.28;5091105;28;20067;-67
2021/11/22 04:21:08;;;;;;;43.65;21.92;;;;;;;5.64;73.96;98251.03;5091654;28;20239;-68
2021/11/22 04:23:36;;;;;;;44.40;21.98;;;;;;;5.63;74.06;98254.84;5092206;28;20070;-68
2021/11/22 04:26:01;;;;;;;40.38;20.70;;;;;;;5.61;73.98;98262.44;5091655;28;20024;-68
2021/11/22 04:28:27;;;;;;;48.58;21.50;;;;;;;5.59;74.24;98261.91;5090885;28;20119;-68
2021/11/22 04:30:52;;;;;;;45.38;21.92;;;;;;;5.60;74.01;98268.19;5090999;28;20056;-67
2021/11/22 04:33:18;;;;;;;48.72;24.00;;;;;;;5.62;74.56;98263.28;5073395;28;20086;-68
2021/11/22 04:35:43;;;;;;;41.50;21.48;;;;;;;5.68;74.72;98266.81;5090182;28;20032;-69
2021/11/22 04:38:09;;;;;;;45.08;21.95;;;;;;;5.72;74.57;98271.44;5090910;28;20372;-68
2021/11/22 04:40:35;;;;;;;46.30;23.83;;;;;;;5.78;74.35;98272.28;5083235;28;20020;-68
2021/11/22 04:43:00;;;;;;;36.83;18.75;;;;;;;5.86;74.24;98262.78;5091572;28;20032;-68
2021/11/22 04:45:29;;;;;;;49.60;24.08;;;;;;;5.86;74.42;98262.78;5091219;28;20020;-68
2021/11/22 04:47:57;;;;;;;46.10;20.88;;;;;;;5.90;74.60;98261.16;5091206;28;20031;-68
2021/11/22 04:50:23;;;;;;;76.18;29.27;;;;;;;5.89;74.38;98264.97;5091854;28;20081;-69
2021/11/22 04:52:49;;;;;;;136.90;41.75;;;;;;;5.90;74.39;98275.59;5090828;28;20069;-69
2021/11/22 04:55:17;;;;;;;91.85;32.28;;;;;;;5.92;74.38;98270.66;5084383;28;20035;-69
2021/11/22 04:57:43;;;;;;;82.68;30.30;;;;;;;5.89;74.26;98284.84;5085713;28;20469;-69
2021/11/22 05:00:12;;;;;;;63.65;24.55;;;;;;;5.91;74.31;98282.63;5088199;28;20042;-69
2021/11/22 05:02:42;;;;;;;54.05;23.48;;;;;;;5.94;74.24;98281.31;5089017;28;20020;-69
2021/11/22 05:05:07;;;;;;;;;;;;;;;5.90;74.58;98280.19;5088350;28;20020;-69
2021/11/22 05:07:33;;;;;;;43.33;20.45;;;;;;;5.86;74.30;98276.38;5091189;28;19923;-69
2021/11/22 05:09:59;;;;;;;60.70;25.35;;;;;;;5.75;74.40;98273.63;5091198;28;20035;-69
2021/11/22 05:12:24;;;;;;;79.53;30.70;;;;;;;5.65;74.50;98284.53;5085796;28;20483;-68
2021/11/22 05:14:50;;;;;;;68.45;26.80;;;;;;;5.62;74.66;98294.00;5088561;28;20035;-69
2021/11/22 05:17:16;;;;;;;49.92;22.02;;;;;;;5.58;74.49;98303.78;5089533;28;20028;-69
2021/11/22 05:19:41;;;;;;;52.13;22.85;;;;;;;5.54;74.45;98302.69;5091032;28;20433;-69
2021/11/22 05:22:07;;;;;;;47.53;22.25;;;;;;;5.51;75.07;98297.78;5090179;28;20103;-69
2021/11/22 05:24:33;;;;;;;56.85;24.35;;;;;;;5.47;74.70;98302.94;5089824;28;20035;-69
2021/11/22 05:27:01;;;;;;;57.55;25.83;;;;;;;5.53;75.20;98305.69;5090323;28;20027;-69
2021/11/22 05:29:27;;;;;;;57.75;25.48;;;;;;;5.55;75.43;98309.78;5092046;28;20024;-69
2021/11/22 05:31:52;;;;;;;56.83;24.63;;;;;;;5.60;75.72;98317.16;5075125;28;20036;-69
2021/11/22 05:34:18;;;;;;;48.03;20.08;;;;;;;5.61;75.04;98316.06;5087285;28;20396;-69
2021/11/22 05:36:45;;;;;;;59.60;25.20;;;;;;;5.58;75.45;98316.59;5089352;28;20081;-69
2021/11/22 05:39:11;;;;;;;54.58;24.13;;;;;;;5.58;75.46;98316.59;5072654;28;20028;-69
2021/11/22 05:41:37;;;;;;;61.65;25.30;;;;;;;5.58;75.23;98325.56;5089532;28;20537;-69
2021/11/22 05:44:02;;;;;;;58.40;24.38;;;;;;;5.56;75.19;98322.28;5091107;28;20074;-69
2021/11/22 05:46:28;;;;;;;57.60;24.83;;;;;;;5.56;75.52;98326.94;5090403;28;20035;-69
2021/11/22 05:48:53;;;;;;;49.25;21.77;;;;;;;5.57;75.53;98332.09;5090423;28;20495;-69
2021/11/22 05:51:20;;;;;;;45.88;21.33;;;;;;;5.56;75.74;98333.16;5090773;28;20084;-69
2021/11/22 05:53:49;;;;;;;51.67;23.10;;;;;;;5.52;75.60;98337.50;5090168;28;20026;-69
2021/11/22 05:56:17;;;;;;;49.80;22.60;;;;;;;5.51;75.75;98346.75;5090456;28;20129;-69
2021/11/22 05:58:43;;;;;;;47.45;21.95;;;;;;;5.52;75.87;98345.66;5083822;28;20122;-69
2021/11/22 06:01:09;;;;;;;47.38;20.52;;;;;;;5.56;76.04;98345.97;5089163;28;20028;-69
2021/11/22 06:03:34;;;;;;;51.08;23.70;;;;;;;5.53;75.78;98338.34;5090083;28;20384;-69
2021/11/22 06:06:01;;;;;;;41.75;20.60;;;;;;;5.52;76.13;98345.66;5090255;28;20027;-69
2021/11/22 06:08:26;;;;;;;43.70;20.75;;;;;;;5.58;76.28;98349.25;5090049;28;20028;-69
2021/11/22 06:10:52;;;;;;;42.55;21.40;;;;;;;5.58;75.79;98355.47;5073797;28;20538;-69
2021/11/22 06:13:19;;;;;;;46.55;22.38;;;;;;;5.57;75.93;98361.22;5088795;28;20035;-69
2021/11/22 06:15:46;;;;;;;46.38;21.17;;;;;;;5.55;75.92;98364.19;5089886;28;20110;-69
2021/11/22 06:18:12;;;;;;;47.85;21.45;;;;;;;5.51;76.21;98369.34;5088625;28;20028;-70
2021/11/22 06:20:38;;;;;;;47.50;21.38;;;;;;;5.51;75.68;98379.38;5088764;28;20160;-69
2021/11/22 06:23:04;;;;;;;63.13;27.55;;;;;;;5.51;76.17;98382.09;5090230;28;20024;-69
2021/11/22 06:25:31;;;;;;;54.88;24.05;;;;;;;5.54;75.80;98378.06;5087558;28;20390;-68
2021/11/22 06:27:56;;;;;;;55.28;23.42;;;;;;;5.52;75.98;98389.19;5090514;28;20089;-69
2021/11/22 06:30:22;;;;;;;52.90;22.52;;;;;;;5.51;76.04;98390.28;5091004;28;21361;-69
2021/11/22 06:32:48;;;;;;;48.65;22.02;;;;;;;5.50;76.07;98394.09;5091474;28;20073;-68
2021/11/22 06:35:14;;;;;;;49.60;22.88;;;;;;;5.46;75.88;98406.59;5087537;28;20028;-69
2021/11/22 06:37:39;;;;;;;49.50;21.83;;;;;;;5.46;75.91;98404.69;5090828;28;20024;-69
2021/11/22 06:40:07;;;;;;;51.72;22.42;;;;;;;5.48;76.63;98405.22;5092107;28;20039;-69
2021/11/22 06:42:33;;;;;;;57.65;24.70;;;;;;;5.56;76.17;98403.09;5092442;28;20024;-68
2021/11/22 06:44:59;;;;;;;57.45;26.30;;;;;;;5.60;76.96;98413.19;5090771;28;20082;-69
2021/11/22 06:47:25;;;;;;;59.38;28.85;;;;;;;5.70;76.76;98417.88;5088944;28;20024;-68
2021/11/22 06:49:52;;;;;;;54.67;24.48;;;;;;;5.68;76.16;98420.03;5090896;28;20048;-68
2021/11/22 06:52:18;;;;;;;56.70;23.83;;;;;;;5.61;76.75;98422.97;5092571;28;20027;-68
2021/11/22 06:54:44;;;;;;;51.97;22.25;;;;;;;5.58;76.30;98417.25;5074296;28;20052;-69
2021/11/22 06:57:10;;;;;;;72.50;32.72;;;;;;;5.52;76.86;98416.38;5091616;28;20036;-69
2021/11/22 06:59:35;;;;;;;61.20;26.33;;;;;;;5.53;76.89;98422.66;5091343;28;20433;-68
2021/11/22 07:02:01;;;;;;;56.30;23.88;;;;;;;5.54;76.46;98421.59;5092451;28;20126;-69
2021/11/22 07:04:26;;;;;;;54.75;24.15;;;;;;;5.52;76.78;98424.56;5093023;28;20028;-69
2021/11/22 07:06:52;;;;;;;58.30;25.02;;;;;;;5.48;76.39;98429.72;5091754;28;20028;-68
2021/11/22 07:09:18;;;;;;;63.20;25.73;;;;;;;5.54;76.81;98440.63;5085177;28;20106;-67
2021/11/22 07:11:46;;;;;;;97.85;38.72;;;;;;;5.55;77.02;98440.34;5092738;28;20028;-67
2021/11/22 07:14:11;;;;;;;103.10;36.53;;;;;;;5.57;77.46;98440.91;5092405;28;20044;-67
2021/11/22 07:16:38;;;;;;;97.63;34.47;;;;;;;5.66;77.27;98442.06;5092293;28;20108;-67
2021/11/22 07:19:04;;;;;;;82.15;31.13;;;;;;;5.73;77.38;98443.72;5092276;28;20035;-66
2021/11/22 07:21:29;;;;;;;69.47;27.27;;;;;;;5.66;77.03;98447.50;5092169;28;20513;-67
2021/11/22 07:23:55;;;;;;;48.95;21.52;;;;;;;5.57;77.00;98448.25;5092604;28;20095;-66
2021/11/22 07:26:20;;;;;;;48.95;21.65;;;;;;;5.49;77.06;98453.13;5091692;28;20024;-67
2021/11/22 07:28:46;;;;;;;59.83;24.98;;;;;;;5.51;77.61;98455.56;5091453;28;20031;-66
2021/11/22 07:31:11;;;;;;;56.55;23.23;;;;;;;5.61;77.78;98458.34;5072468;28;20396;-67
2021/11/22 07:33:37;;;;;;;53.58;22.55;;;;;;;5.67;78.02;98456.50;5090795;28;20110;-66
2021/11/22 07:36:02;;;;;;;51.20;21.50;;;;;;;5.72;78.10;98467.38;5089322;28;20028;-67
2021/11/22 07:38:28;;;;;;;51.83;21.20;;;;;;;5.68;77.61;98469.00;5090818;28;20032;-65
2021/11/22 07:40:55;;;;;;;58.10;23.00;;;;;;;5.66;77.53;98465.75;5073107;28;20060;-67
2021/11/22 07:43:20;;;;;;;52.60;22.17;;;;;;;5.59;77.59;98468.66;5089578;28;20035;-66
2021/11/22 07:45:47;;;;;;;52.55;21.77;;;;;;;5.60;77.91;98473.03;5089689;28;20032;-66
2021/11/22 07:48:14;;;;;;;54.90;22.73;;;;;;;5.58;77.63;98467.03;5090323;28;20085;-66
2021/11/22 07:50:39;;;;;;;56.70;23.55;;;;;;;5.61;78.05;98474.66;5090123;28;20047;-66
2021/11/22 07:53:05;;;;;;;49.10;22.33;;;;;;;5.63;77.81;98471.69;5089159;28;20539;-65
2021/11/22 07:55:30;;;;;;;43.58;19.70;;;;;;;5.60;77.80;98469.50;5089734;28;20103;-65
2021/11/22 07:57:57;;;;;;;48.17;20.42;;;;;;;5.59;78.61;98476.84;5086091;28;20639;-65
2021/11/22 08:00:24;;;;;;;58.60;22.05;;;;;;;5.62;78.59;98483.66;5089352;28;20028;-65
2021/11/22 08:02:50;;;;;;;48.50;20.35;;;;;;;5.58;78.03;98485.28;5090980;28;20056;-66
2021/11/22 08:05:16;;;;;;;41.92;19.02;;;;;;;5.60;78.44;98486.63;5091433;28;20055;-65
2021/11/22 08:07:42;;;;;;;39.97;17.48;;;;;;;5.60;78.88;98492.06;5092548;28;20044;-65
2021/11/22 08:12:52;;;;;;;39.00;17.17;;;;;;;5.62;78.37;98503.53;5093280;28;20032;-65
2021/11/22 08:15:19;;;;;;;35.38;15.77;;;;;;;5.59;79.22;98508.69;5091032;28;20031;-65
2021/11/22 08:17:45;;;;;;;26.58;13.40;;;;;;;5.51;79.43;98510.81;5091093;28;20388;-65
2021/11/22 08:20:12;;;;;;;36.42;17.88;;;;;;;5.43;79.11;98513.19;5089652;28;20028;-65
2021/11/22 08:22:38;;;;;;;32.42;17.02;;;;;;;5.42;79.39;98512.38;5093051;28;20024;-65
2021/11/22 08:25:05;;;;;;;39.50;20.25;;;;;;;5.42;79.36;98520.53;5095367;28;20032;-64
2021/11/22 08:27:31;;;;;;;33.38;15.82;;;;;;;5.46;80.04;98524.38;5091790;28;20107;-66
2021/11/22 08:30:00;;;;;;;51.22;20.48;;;;;;;5.48;79.31;98521.41;5091045;28;20605;-65
2021/11/22 08:32:25;;;;;;;56.63;20.58;;;;;;;5.51;79.34;98537.16;5090446;28;20491;-65
2021/11/22 08:34:51;;;;;;;39.15;15.82;;;;;;;5.51;79.40;98531.72;5088283;28;20036;-66
2021/11/22 08:37:16;;;;;;;47.60;17.15;;;;;;;5.54;79.46;98533.13;5072358;28;20115;-66
2021/11/22 08:39:42;;;;;;;54.28;20.73;;;;;;;5.54;79.47;98531.22;5090562;28;20075;-66
2021/11/22 08:42:07;;;;;;;45.25;21.20;;;;;;;5.58;79.25;98543.22;5091745;28;20028;-66
2021/11/22 08:44:34;;;;;;;29.15;14.63;;;;;;;5.64;79.38;98541.38;5071906;28;20020;-66
2021/11/22 08:47:01;;;;;;;34.15;16.33;;;;;;;5.67;79.21;98549.00;5089734;28;20035;-67
2021/11/22 08:49:27;;;;;;;33.65;16.60;;;;;;;5.70;79.20;98547.66;5090695;28;20055;-66
2021/11/22 08:51:53;;;;;;;25.35;11.68;;;;;;;5.75;79.36;98547.69;5088707;28;20020;-66
2021/11/22 08:54:19;;;;;;;30.80;13.95;;;;;;;5.75;79.37;98548.50;5088434;28;20028;-67
2021/11/22 08:56:45;;;;;;;14.98;8.13;;;;;;;5.76;79.41;98552.06;5087600;28;20031;-66
2021/11/22 08:59:11;;;;;;;25.05;15.32;;;;;;;5.75;79.05;98556.66;5089545;28;20038;-66
2021/11/22 09:01:36;;;;;;;20.20;12.18;;;;;;;5.77;78.98;98557.22;5089575;28;20077;-66
2021/11/22 09:04:02;;;;;;;22.77;13.77;;;;;;;5.79;78.83;98560.50;5078489;28;20647;-65
2021/11/22 09:06:27;;;;;;;15.75;9.35;;;;;;;5.77;78.87;98564.56;5084453;28;20024;-66
2021/11/22 09:08:53;;;;;;;17.33;11.75;;;;;;;5.79;79.08;98567.84;5089786;28;20031;-66
2021/11/22 09:11:18;;;;;;;27.20;14.68;;;;;;;5.80;78.29;98573.03;5089610;28;20466;-66
2021/11/22 09:13:45;;;;;;;16.48;8.45;;;;;;;5.87;78.85;98577.44;5085413;28;20051;-65
2021/11/22 09:16:11;;;;;;;20.50;10.35;;;;;;;5.85;78.44;98583.16;5085796;28;20070;-66
2021/11/22 09:18:37;;;;;;;20.50;15.43;;;;;;;5.86;78.48;98573.06;5086399;28;20035;-66
2021/11/22 09:21:04;;;;;;;26.00;18.58;;;;;;;5.87;78.50;98582.88;5088856;28;20103;-66
2021/11/22 09:23:31;;;;;;;31.23;15.98;;;;;;;5.89;78.27;98575.25;5088971;28;20526;-66
2021/11/22 09:25:57;;;;;;;14.73;8.52;;;;;;;5.89;78.61;98576.09;5086402;28;20388;-65
2021/11/22 09:28:23;;;;;;;29.13;16.77;;;;;;;5.91;78.26;98578.53;5088953;28;20015;-66
2021/11/22 09:30:48;;;;;;;24.95;16.33;;;;;;;5.95;78.30;98587.81;5087963;28;20044;-66
2021/11/22 09:33:14;;;;;;;20.55;11.20;;;;;;;6.01;78.38;98588.69;5088882;28;20118;-66
2021/11/22 09:35:40;;;;;;;23.35;14.95;;;;;;;6.03;78.28;98598.25;5086993;28;20479;-66
2021/11/22 09:38:06;;;;;;;24.85;14.98;;;;;;;6.08;78.40;98590.13;5088161;28;20111;-66
2021/11/22 09:40:36;;;;;;;27.02;15.00;;;;;;;6.16;78.39;98593.41;5091757;28;20127;-66
2021/11/22 09:43:03;;;;;;;44.75;36.83;;;;;;;6.25;78.72;98600.00;5070567;28;20031;-66
2021/11/22 09:45:30;;;;;;;31.67;18.83;;;;;;;6.28;78.34;98604.94;5088693;28;20024;-66
2021/11/22 09:48:00;;;;;;;37.95;26.77;;;;;;;6.31;78.68;98593.50;5070862;28;20107;-66
2021/11/22 09:50:27;;;;;;;38.20;28.25;;;;;;;6.35;78.44;98600.06;5070789;28;20127;-66
2021/11/22 09:52:53;;;;;;;36.65;18.55;;;;;;;6.41;78.50;98590.00;5089454;28;20111;-66
2021/11/22 09:55:18;;;;;;;35.50;18.05;;;;;;;6.41;78.06;98590.00;5091527;28;20031;-66
2021/11/22 09:57:43;;;;;;;48.10;20.88;;;;;;;6.43;78.20;98589.75;5070895;28;20040;-65
2021/11/22 10:00:11;;;;;;;39.83;21.35;;;;;;;6.49;78.03;98596.88;5091583;28;20036;-66
2021/11/22 10:02:43;;;;;;;28.08;14.60;;;;;;;6.50;78.03;98596.59;5091550;28;20036;-67
2021/11/22 10:05:31;;;;;;;31.02;18.17;;;;;;;6.49;77.95;98597.66;5091334;28;20055;-67
2021/11/22 10:08:25;;;;;;;32.47;20.17;;;;;;;6.48;78.08;98604.22;5073550;28;20032;-66
2021/11/22 10:10:55;;;;;;;21.38;11.00;;;;;;;6.48;78.01;98597.94;5091643;28;20040;-67
2021/11/22 10:13:22;;;;;;;22.10;13.77;;;;;;;6.47;78.15;98601.75;5092619;28;20055;-66
2021/11/22 10:15:50;;;;;;;27.50;15.52;;;;;;;6.50;78.03;98598.50;5090355;28;20512;-66
2021/11/22 10:18:16;;;;;;;25.55;12.80;;;;;;;6.55;77.98;98595.78;5074944;28;20107;-66
2021/11/22 10:20:42;;;;;;;19.45;10.95;;;;;;;6.57;77.98;98603.69;5092890;28;20027;-66
2021/11/22 10:23:09;;;;;;;17.90;10.90;;;;;;;6.56;77.99;98605.59;5090151;28;20365;-66
2021/11/22 10:25:37;;;;;;;15.90;8.68;;;;;;;6.57;77.90;98609.16;5090561;28;20042;-66
2021/11/22 10:28:20;;;;;;;14.75;9.07;;;;;;;6.54;77.72;98605.03;5093866;28;20038;-67
2021/11/22 10:31:08;;;;;;;24.27;12.65;;;;;;;6.58;77.73;98602.63;5092517;28;20063;-66
2021/11/22 10:33:36;;;;;;;16.90;9.75;;;;;;;6.64;77.74;98602.34;5093329;28;20111;-66
2021/11/22 10:36:10;;;;;;;31.00;13.60;;;;;;;6.67;77.93;98601.03;5090312;28;20044;-66
2021/11/22 10:38:38;;;;;;;18.40;8.38;;;;;;;6.68;77.38;98602.66;5092314;28;20032;-66
2021/11/22 10:41:09;;;;;;;13.02;8.38;;;;;;;6.71;77.52;98602.13;5093099;28;20039;-67
2021/11/22 10:43:35;;;;;;;12.10;7.82;;;;;;;6.76;78.10;98606.78;5095833;28;20153;-67
2021/11/22 10:46:00;;;;;;;13.38;8.40;;;;;;;6.73;77.24;98605.38;5089232;28;20048;-67
2021/11/22 10:48:28;;;;;;;15.43;9.40;;;;;;;6.76;77.71;98610.31;5092433;28;20566;-67
2021/11/22 10:51:27;;;;;;;17.38;9.48;;;;;;;6.79;77.45;98611.69;5097212;28;20033;-66
2021/11/22 10:54:04;;;;;;;39.53;14.05;;;;;;;6.81;76.95;98612.25;5092517;28;20057;-67
2021/11/22 10:56:36;;;;;;;16.70;8.95;;;;;;;6.78;77.31;98607.31;5094579;28;20113;-67
2021/11/22 10:59:12;;;;;;;60.22;21.08;;;;;;;6.79;77.43;98615.22;5090006;28;20562;-66
2021/11/22 11:01:44;;;;;;;29.65;13.68;;;;;;;6.85;77.48;98616.06;5091619;28;20032;-67
2021/11/22 11:04:24;;;;;;;53.30;19.42;;;;;;;6.92;77.49;98618.53;5092306;28;20028;-66
2021/11/22 11:07:05;;;;;;;45.95;17.02;;;;;;;6.87;77.35;98616.63;5089907;28;20039;-66
2021/11/22 11:09:41;;;;;;;32.60;15.05;;;;;;;6.89;77.32;98627.25;5092124;28;20106;-67
2021/11/22 11:12:09;;;;;;;47.97;18.40;;;;;;;6.87;77.00;98630.25;5092384;28;20103;-66
2021/11/22 11:14:38;;;;;;;24.60;10.73;;;;;;;6.85;76.90;98621.53;5092085;28;20032;-66
2021/11/22 11:17:19;;;;;;;29.40;14.73;;;;;;;6.81;76.97;98626.69;5090925;28;20028;-67
2021/11/22 11:19:46;;;;;;;32.05;14.52;;;;;;;6.85;76.66;98621.53;5088668;28;20040;-66
2021/11/22 11:22:12;;;;;;;30.48;15.90;;;;;;;6.88;76.94;98625.63;5092511;28;20396;-66
2021/11/22 11:24:39;;;;;;;24.27;13.15;;;;;;;6.91;76.94;98627.81;5091105;28;20024;-67
2021/11/22 11:27:04;;;;;;;30.08;15.98;;;;;;;6.95;77.33;98635.16;5091974;28;20488;-65